sensor_id;sensor_type;location;lat;lon;timestamp;pressure;altitude;pressure_sealevel;temperature;humidity
50380;BME280;37474;59.468;18.040;2023-09-30T00:01:37;100374.84;;;14.69;100.00
50380;BME280;37474;59.468;18.040;2023-09-30T00:04:06;100380.41;;;14.65;100.00
50380;BME280;37474;59.468;18.040;2023-09-30T00:06:36;100378.19;;;14.71;100.00
50380;BME280;37474;59.468;18.040;2023-09-30T00:09:06;100367.28;;;14.66;100.00
50380;BME280;37474;59.468;18.040;2023-09-30T00:11:34;100371.41;;;14.69;100.00
50380;BME280;37474;59.468;18.040;2023-09-30T00:14:03;100374.16;;;14.67;100.00
50380;BME280;37474;59.468;18.040;2023-09-30T00:16:33;100346.69;;;14.50;100.00
50380;BME280;37474;59.468;18.040;2023-09-30T00:19:01;100357.66;;;14.67;100.00
50380;BME280;37474;59.468;18.040;2023-09-30T00:21:30;100373.06;;;14.70;100.00
50380;BME280;37474;59.468;18.040;2023-09-30T00:23:58;100369.25;;;14.63;100.00
50380;BME280;37474;59.468;18.040;2023-09-30T00:26:26;100371.41;;;14.69;100.00
50380;BME280;37474;59.468;18.040;2023-09-30T00:28:54;100375.94;;;14.67;100.00
50380;BME280;37474;59.468;18.040;2023-09-30T00:31:22;100371.19;;;14.72;100.00
50380;BME280;37474;59.468;18.040;2023-09-30T00:33:52;100363.72;;;14.67;100.00
50380;BME280;37474;59.468;18.040;2023-09-30T00:36:21;100369.03;;;14.66;100.00
50380;BME280;37474;59.468;18.040;2023-09-30T00:38:49;100376.16;;;14.75;100.00
50380;BME280;37474;59.468;18.040;2023-09-30T00:41:18;100374.19;;;14.78;100.00
50380;BME280;37474;59.468;18.040;2023-09-30T00:43:46;100369.97;;;14.65;100.00
50380;BME280;37474;59.468;18.040;2023-09-30T00:46:29;100373.91;;;14.70;100.00
50380;BME280;37474;59.468;18.040;2023-09-30T00:48:59;100370.91;;;14.64;100.00
50380;BME280;37474;59.468;18.040;2023-09-30T00:51:27;100364.75;;;14.65;100.00
50380;BME280;37474;59.468;18.040;2023-09-30T00:54:00;100373.97;;;14.58;100.00
50380;BME280;37474;59.468;18.040;2023-09-30T00:56:30;100384.22;;;14.61;100.00
50380;BME280;37474;59.468;18.040;2023-09-30T00:58:58;100376.72;;;14.56;100.00
50380;BME280;37474;59.468;18.040;2023-09-30T01:01:26;100373.97;;;14.58;100.00
50380;BME280;37474;59.468;18.040;2023-09-30T01:03:55;100368.97;;;14.55;100.00
50380;BME280;37474;59.468;18.040;2023-09-30T01:06:25;100370.16;;;14.50;100.00
50380;BME280;37474;59.468;18.040;2023-09-30T01:08:55;100367.44;;;14.52;100.00
50380;BME280;37474;59.468;18.040;2023-09-30T01:11:24;100374.97;;;14.44;100.00
50380;BME280;37474;59.468;18.040;2023-09-30T01:13:53;100380.28;;;14.42;100.00
50380;BME280;37474;59.468;18.040;2023-09-30T01:16:22;100372.47;;;14.42;100.00
50380;BME280;37474;59.468;18.040;2023-09-30T01:18:51;100369.72;;;14.33;100.00
50380;BME280;37474;59.468;18.040;2023-09-30T01:21:20;100374.31;;;14.29;100.00
50380;BME280;37474;59.468;18.040;2023-09-30T01:23:49;100392.50;;;14.18;100.00
50380;BME280;37474;59.468;18.040;2023-09-30T01:26:19;100395.09;;;14.18;100.00
50380;BME280;37474;59.468;18.040;2023-09-30T01:28:47;100393.91;;;14.11;100.00
50380;BME280;37474;59.468;18.040;2023-09-30T01:31:15;100398.69;;;14.04;100.00
50380;BME280;37474;59.468;18.040;2023-09-30T01:33:43;100400.06;;;13.97;100.00
50380;BME280;37474;59.468;18.040;2023-09-30T01:36:11;100409.56;;;13.98;100.00
50380;BME280;37474;59.468;18.040;2023-09-30T01:38:39;100402.47;;;14.00;100.00
50380;BME280;37474;59.468;18.040;2023-09-30T01:41:09;100400.78;;;13.99;100.00
50380;BME280;37474;59.468;18.040;2023-09-30T01:43:36;100403.13;;;13.91;100.00
50380;BME280;37474;59.468;18.040;2023-09-30T01:46:04;100400.75;;;13.75;100.00
50380;BME280;37474;59.468;18.040;2023-09-30T01:48:33;100408.38;;;13.78;100.00
50380;BME280;37474;59.468;18.040;2023-09-30T01:51:01;100408.13;;;13.81;100.00
50380;BME280;37474;59.468;18.040;2023-09-30T01:53:29;100402.91;;;13.81;100.00
50380;BME280;37474;59.468;18.040;2023-09-30T01:55:58;100399.59;;;13.79;100.00
50380;BME280;37474;59.468;18.040;2023-09-30T01:58:27;100398.44;;;13.83;100.00
50380;BME280;37474;59.468;18.040;2023-09-30T02:01:01;100398.66;;;13.80;100.00
50380;BME280;37474;59.468;18.040;2023-09-30T02:03:30;100394.16;;;13.82;100.00
50380;BME280;37474;59.468;18.040;2023-09-30T02:05:58;100398.88;;;13.64;100.00
50380;BME280;37474;59.468;18.040;2023-09-30T02:08:26;100404.50;;;13.71;100.00
50380;BME280;37474;59.468;18.040;2023-09-30T02:10:54;100403.50;;;13.61;100.00
50380;BME280;37474;59.468;18.040;2023-09-30T02:13:22;100403.78;;;13.69;100.00
50380;BME280;37474;59.468;18.040;2023-09-30T02:15:52;100410.56;;;13.71;100.00
50380;BME280;37474;59.468;18.040;2023-09-30T02:18:22;100406.69;;;13.64;100.00
50380;BME280;37474;59.468;18.040;2023-09-30T02:20:50;100405.16;;;13.62;100.00
50380;BME280;37474;59.468;18.040;2023-09-30T02:23:20;100415.56;;;13.62;100.00
50380;BME280;37474;59.468;18.040;2023-09-30T02:25:48;100428.50;;;13.51;100.00
50380;BME280;37474;59.468;18.040;2023-09-30T02:28:16;100419.09;;;13.48;100.00
50380;BME280;37474;59.468;18.040;2023-09-30T02:30:44;100425.28;;;13.34;100.00
50380;BME280;37474;59.468;18.040;2023-09-30T02:33:13;100428.59;;;13.24;100.00
50380;BME280;37474;59.468;18.040;2023-09-30T02:35:43;100431.31;;;13.22;100.00
50380;BME280;37474;59.468;18.040;2023-09-30T02:38:12;100429.47;;;13.10;100.00
50380;BME280;37474;59.468;18.040;2023-09-30T02:40:42;100419.59;;;13.15;100.00
50380;BME280;37474;59.468;18.040;2023-09-30T02:43:13;100434.19;;;13.05;100.00
50380;BME280;37474;59.468;18.040;2023-09-30T02:45:41;100438.59;;;12.77;100.00
50380;BME280;37474;59.468;18.040;2023-09-30T02:48:09;100431.69;;;12.76;100.00
50380;BME280;37474;59.468;18.040;2023-09-30T02:50:38;100435.63;;;12.69;100.00
50380;BME280;37474;59.468;18.040;2023-09-30T02:53:11;100434.69;;;12.70;100.00
50380;BME280;37474;59.468;18.040;2023-09-30T02:55:39;100397.69;;;12.39;100.00
50380;BME280;37474;59.468;18.040;2023-09-30T02:58:07;100440.81;;;12.56;100.00
50380;BME280;37474;59.468;18.040;2023-09-30T03:00:36;100434.97;;;12.53;100.00
50380;BME280;37474;59.468;18.040;2023-09-30T03:03:05;100436.03;;;12.63;100.00
50380;BME280;37474;59.468;18.040;2023-09-30T03:05:33;100440.41;;;12.35;100.00
50380;BME280;37474;59.468;18.040;2023-09-30T03:08:04;100437.63;;;12.38;100.00
50380;BME280;37474;59.468;18.040;2023-09-30T03:10:32;100433.09;;;12.28;100.00
50380;BME280;37474;59.468;18.040;2023-09-30T03:13:00;100450.09;;;12.19;100.00
50380;BME280;37474;59.468;18.040;2023-09-30T03:15:29;100451.31;;;12.13;100.00
50380;BME280;37474;59.468;18.040;2023-09-30T03:17:58;100461.59;;;12.15;100.00
50380;BME280;37474;59.468;18.040;2023-09-30T03:20:27;100457.44;;;12.12;100.00
50380;BME280;37474;59.468;18.040;2023-09-30T03:22:56;100451.53;;;11.96;100.00
50380;BME280;37474;59.468;18.040;2023-09-30T03:25:27;100458.66;;;12.07;100.00
50380;BME280;37474;59.468;18.040;2023-09-30T03:27:57;100445.84;;;12.04;100.00
50380;BME280;37474;59.468;18.040;2023-09-30T03:30:24;100450.50;;;11.99;100.00
50380;BME280;37474;59.468;18.040;2023-09-30T03:32:52;100445.94;;;11.88;100.00
50380;BME280;37474;59.468;18.040;2023-09-30T03:35:21;100450.13;;;12.05;100.00
50380;BME280;37474;59.468;18.040;2023-09-30T03:37:51;100449.47;;;12.01;100.00
50380;BME280;37474;59.468;18.040;2023-09-30T03:40:19;100448.06;;;12.10;100.00
50380;BME280;37474;59.468;18.040;2023-09-30T03:42:55;100445.00;;;12.18;100.00
50380;BME280;37474;59.468;18.040;2023-09-30T03:45:26;100452.22;;;12.27;100.00
50380;BME280;37474;59.468;18.040;2023-09-30T03:47:54;100452.59;;;12.21;100.00
50380;BME280;37474;59.468;18.040;2023-09-30T03:50:22;100457.31;;;12.28;100.00
50380;BME280;37474;59.468;18.040;2023-09-30T03:52:51;100452.00;;;12.44;100.00
50380;BME280;37474;59.468;18.040;2023-09-30T03:55:19;100457.63;;;12.51;100.00
50380;BME280;37474;59.468;18.040;2023-09-30T03:57:48;100453.06;;;12.54;100.00
50380;BME280;37474;59.468;18.040;2023-09-30T04:00:19;100455.47;;;12.57;100.00
50380;BME280;37474;59.468;18.040;2023-09-30T04:02:49;100454.09;;;12.52;100.00
50380;BME280;37474;59.468;18.040;2023-09-30T04:05:20;100465.63;;;12.48;100.00
50380;BME280;37474;59.468;18.040;2023-09-30T04:07:52;100459.25;;;12.39;100.00
50380;BME280;37474;59.468;18.040;2023-09-30T04:10:20;100460.53;;;12.46;100.00
50380;BME280;37474;59.468;18.040;2023-09-30T04:12:49;100461.31;;;12.61;100.00
50380;BME280;37474;59.468;18.040;2023-09-30T04:15:18;100463.38;;;12.56;100.00
50380;BME280;37474;59.468;18.040;2023-09-30T04:17:48;100473.31;;;12.49;100.00
50380;BME280;37474;59.468;18.040;2023-09-30T04:20:16;100474.25;;;12.48;100.00
50380;BME280;37474;59.468;18.040;2023-09-30T04:22:48;100462.19;;;12.47;100.00
50380;BME280;37474;59.468;18.040;2023-09-30T04:25:17;100414.00;;;12.14;100.00
50380;BME280;37474;59.468;18.040;2023-09-30T04:27:46;100464.63;;;12.36;100.00
50380;BME280;37474;59.468;18.040;2023-09-30T04:30:15;100470.94;;;12.46;100.00
50380;BME280;37474;59.468;18.040;2023-09-30T04:32:44;100427.06;;;12.27;100.00
50380;BME280;37474;59.468;18.040;2023-09-30T04:35:14;100476.16;;;12.59;100.00
50380;BME280;37474;59.468;18.040;2023-09-30T04:37:45;100477.84;;;12.60;100.00
50380;BME280;37474;59.468;18.040;2023-09-30T04:40:13;100466.72;;;12.58;100.00
50380;BME280;37474;59.468;18.040;2023-09-30T04:42:46;100476.00;;;12.62;100.00
50380;BME280;37474;59.468;18.040;2023-09-30T04:45:14;100472.97;;;12.41;100.00
50380;BME280;37474;59.468;18.040;2023-09-30T04:47:43;100414.09;;;12.13;100.00
50380;BME280;37474;59.468;18.040;2023-09-30T04:50:13;100466.44;;;12.48;100.00
50380;BME280;37474;59.468;18.040;2023-09-30T04:52:43;100475.97;;;12.35;100.00
50380;BME280;37474;59.468;18.040;2023-09-30T04:55:12;100466.28;;;12.37;100.00
50380;BME280;37474;59.468;18.040;2023-09-30T04:57:43;100472.81;;;12.44;100.00
50380;BME280;37474;59.468;18.040;2023-09-30T05:00:13;100472.16;;;12.40;100.00
50380;BME280;37474;59.468;18.040;2023-09-30T05:02:41;100465.34;;;12.38;100.00
50380;BME280;37474;59.468;18.040;2023-09-30T05:05:12;100469.50;;;12.28;100.00
50380;BME280;37474;59.468;18.040;2023-09-30T05:07:42;100467.34;;;12.34;100.00
50380;BME280;37474;59.468;18.040;2023-09-30T05:10:10;100456.28;;;12.31;100.00
50380;BME280;37474;59.468;18.040;2023-09-30T05:12:42;100475.31;;;12.31;100.00
50380;BME280;37474;59.468;18.040;2023-09-30T05:15:14;100473.38;;;12.35;100.00
50380;BME280;37474;59.468;18.040;2023-09-30T05:17:43;100466.25;;;12.24;100.00
50380;BME280;37474;59.468;18.040;2023-09-30T05:20:12;100478.19;;;12.27;100.00
50380;BME280;37474;59.468;18.040;2023-09-30T05:22:40;100485.31;;;12.10;100.00
50380;BME280;37474;59.468;18.040;2023-09-30T05:25:13;100481.22;;;12.06;100.00
50380;BME280;37474;59.468;18.040;2023-09-30T05:27:43;100454.28;;;11.79;100.00
50380;BME280;37474;59.468;18.040;2023-09-30T05:30:11;100487.44;;;11.89;100.00
50380;BME280;37474;59.468;18.040;2023-09-30T05:32:42;100478.06;;;11.87;100.00
50380;BME280;37474;59.468;18.040;2023-09-30T05:35:10;100481.56;;;11.72;100.00
50380;BME280;37474;59.468;18.040;2023-09-30T05:37:45;100488.44;;;11.87;100.00
50380;BME280;37474;59.468;18.040;2023-09-30T05:40:14;100485.47;;;11.93;100.00
50380;BME280;37474;59.468;18.040;2023-09-30T05:42:50;100489.84;;;12.07;100.00
50380;BME280;37474;59.468;18.040;2023-09-30T05:45:19;100486.22;;;11.95;100.00
50380;BME280;37474;59.468;18.040;2023-09-30T05:47:47;100488.34;;;12.03;100.00
50380;BME280;37474;59.468;18.040;2023-09-30T05:50:18;100492.22;;;12.10;100.00
50380;BME280;37474;59.468;18.040;2023-09-30T05:52:51;100490.94;;;12.03;100.00
50380;BME280;37474;59.468;18.040;2023-09-30T05:55:21;100502.66;;;11.96;100.00
50380;BME280;37474;59.468;18.040;2023-09-30T05:57:49;100497.91;;;12.02;100.00
50380;BME280;37474;59.468;18.040;2023-09-30T06:00:19;100501.91;;;12.08;100.00
50380;BME280;37474;59.468;18.040;2023-09-30T06:02:51;100494.84;;;12.10;100.00
50380;BME280;37474;59.468;18.040;2023-09-30T06:05:19;100509.50;;;12.25;100.00
50380;BME280;37474;59.468;18.040;2023-09-30T06:07:49;100512.63;;;12.45;100.00
50380;BME280;37474;59.468;18.040;2023-09-30T06:10:17;100509.09;;;12.31;100.00
50380;BME280;37474;59.468;18.040;2023-09-30T06:12:48;100514.19;;;12.47;100.00
50380;BME280;37474;59.468;18.040;2023-09-30T06:15:16;100508.88;;;12.49;100.00
50380;BME280;37474;59.468;18.040;2023-09-30T06:17:49;100515.53;;;12.67;100.00
50380;BME280;37474;59.468;18.040;2023-09-30T06:20:18;100489.22;;;12.45;100.00
50380;BME280;37474;59.468;18.040;2023-09-30T06:22:49;100516.28;;;12.69;100.00
50380;BME280;37474;59.468;18.040;2023-09-30T06:25:17;100519.59;;;12.71;100.00
50380;BME280;37474;59.468;18.040;2023-09-30T06:27:47;100515.00;;;12.62;100.00
50380;BME280;37474;59.468;18.040;2023-09-30T06:30:17;100482.41;;;12.56;100.00
50380;BME280;37474;59.468;18.040;2023-09-30T06:32:46;100520.06;;;12.78;100.00
50380;BME280;37474;59.468;18.040;2023-09-30T06:35:14;100511.56;;;12.61;100.00
50380;BME280;37474;59.468;18.040;2023-09-30T06:37:42;100514.50;;;12.69;100.00
50380;BME280;37474;59.468;18.040;2023-09-30T06:40:12;100506.66;;;12.84;100.00
50380;BME280;37474;59.468;18.040;2023-09-30T06:42:40;100480.09;;;12.52;100.00
50380;BME280;37474;59.468;18.040;2023-09-30T06:45:11;100462.03;;;12.36;100.00
50380;BME280;37474;59.468;18.040;2023-09-30T06:47:40;100485.56;;;12.61;100.00
50380;BME280;37474;59.468;18.040;2023-09-30T06:50:10;100509.41;;;12.95;100.00
50380;BME280;37474;59.468;18.040;2023-09-30T06:52:40;100491.94;;;13.10;100.00
50380;BME280;37474;59.468;18.040;2023-09-30T06:55:09;100506.09;;;13.06;100.00
50380;BME280;37474;59.468;18.040;2023-09-30T06:57:40;100504.22;;;13.08;100.00
50380;BME280;37474;59.468;18.040;2023-09-30T07:00:11;100512.19;;;12.92;100.00
50380;BME280;37474;59.468;18.040;2023-09-30T07:02:40;100507.78;;;13.07;100.00
50380;BME280;37474;59.468;18.040;2023-09-30T07:05:10;100506.09;;;13.06;100.00
50380;BME280;37474;59.468;18.040;2023-09-30T07:07:39;100511.91;;;13.24;100.00
50380;BME280;37474;59.468;18.040;2023-09-30T07:10:09;100502.13;;;13.40;100.00
50380;BME280;37474;59.468;18.040;2023-09-30T07:12:37;100511.31;;;13.45;100.00
50380;BME280;37474;59.468;18.040;2023-09-30T07:15:07;100498.19;;;13.34;100.00
50380;BME280;37474;59.468;18.040;2023-09-30T07:17:37;100513.09;;;13.05;100.00
50380;BME280;37474;59.468;18.040;2023-09-30T07:20:08;100508.72;;;13.06;100.00
50380;BME280;37474;59.468;18.040;2023-09-30T07:22:37;100510.91;;;13.12;100.00
50380;BME280;37474;59.468;18.040;2023-09-30T07:25:08;100507.66;;;13.08;100.00
50380;BME280;37474;59.468;18.040;2023-09-30T07:27:36;100518.06;;;13.23;100.00
50380;BME280;37474;59.468;18.040;2023-09-30T07:30:05;100521.06;;;13.02;100.00
50380;BME280;37474;59.468;18.040;2023-09-30T07:32:33;100466.13;;;12.67;100.00
50380;BME280;37474;59.468;18.040;2023-09-30T07:35:03;100508.72;;;13.18;100.00
50380;BME280;37474;59.468;18.040;2023-09-30T07:37:31;100477.59;;;13.17;100.00
50380;BME280;37474;59.468;18.040;2023-09-30T07:40:00;100466.44;;;13.02;100.00
50380;BME280;37474;59.468;18.040;2023-09-30T07:42:28;100504.41;;;13.32;100.00
50380;BME280;37474;59.468;18.040;2023-09-30T07:44:57;100505.97;;;13.22;100.00
50380;BME280;37474;59.468;18.040;2023-09-30T07:47:24;100510.16;;;13.37;100.00
50380;BME280;37474;59.468;18.040;2023-09-30T07:49:56;100500.97;;;13.31;100.00
50380;BME280;37474;59.468;18.040;2023-09-30T07:52:25;100496.63;;;13.44;100.00
50380;BME280;37474;59.468;18.040;2023-09-30T07:54:53;100494.84;;;13.58;100.00
50380;BME280;37474;59.468;18.040;2023-09-30T07:57:21;100499.34;;;13.56;100.00
50380;BME280;37474;59.468;18.040;2023-09-30T07:59:49;100495.06;;;13.55;100.00
50380;BME280;37474;59.468;18.040;2023-09-30T08:02:17;100518.72;;;13.64;100.00
50380;BME280;37474;59.468;18.040;2023-09-30T08:04:45;100495.91;;;13.68;100.00
50380;BME280;37474;59.468;18.040;2023-09-30T08:07:14;100500.56;;;14.01;100.00
50380;BME280;37474;59.468;18.040;2023-09-30T08:09:43;100509.28;;;14.25;100.00
50380;BME280;37474;59.468;18.040;2023-09-30T08:12:11;100502.00;;;14.18;100.00
50380;BME280;37474;59.468;18.040;2023-09-30T08:14:39;100501.69;;;14.10;100.00
50380;BME280;37474;59.468;18.040;2023-09-30T08:17:07;100488.69;;;13.97;100.00
50380;BME280;37474;59.468;18.040;2023-09-30T08:19:35;100501.16;;;14.05;100.00
50380;BME280;37474;59.468;18.040;2023-09-30T08:22:06;100500.59;;;13.88;100.00
50380;BME280;37474;59.468;18.040;2023-09-30T08:24:34;100505.56;;;14.04;100.00
50380;BME280;37474;59.468;18.040;2023-09-30T08:27:03;100503.53;;;14.33;100.00
50380;BME280;37474;59.468;18.040;2023-09-30T08:29:33;100505.63;;;14.28;100.00
50380;BME280;37474;59.468;18.040;2023-09-30T08:32:03;100458.38;;;13.70;100.00
50380;BME280;37474;59.468;18.040;2023-09-30T08:34:31;100503.66;;;14.19;100.00
50380;BME280;37474;59.468;18.040;2023-09-30T08:37:00;100495.53;;;14.23;100.00
50380;BME280;37474;59.468;18.040;2023-09-30T08:39:27;100492.38;;;14.31;100.00
50380;BME280;37474;59.468;18.040;2023-09-30T08:41:56;100508.00;;;14.44;100.00
50380;BME280;37474;59.468;18.040;2023-09-30T08:44:26;100486.50;;;14.40;100.00
50380;BME280;37474;59.468;18.040;2023-09-30T08:46:54;100503.47;;;14.59;100.00
50380;BME280;37474;59.468;18.040;2023-09-30T08:49:25;100497.22;;;14.85;100.00
50380;BME280;37474;59.468;18.040;2023-09-30T08:51:55;100510.41;;;14.47;100.00
50380;BME280;37474;59.468;18.040;2023-09-30T08:54:26;100505.41;;;14.31;100.00
50380;BME280;37474;59.468;18.040;2023-09-30T08:56:54;100513.75;;;14.36;100.00
50380;BME280;37474;59.468;18.040;2023-09-30T08:59:22;100508.53;;;14.36;100.00
50380;BME280;37474;59.468;18.040;2023-09-30T09:01:53;100500.31;;;14.30;100.00
50380;BME280;37474;59.468;18.040;2023-09-30T09:04:21;100499.03;;;14.48;100.00
50380;BME280;37474;59.468;18.040;2023-09-30T09:06:49;100496.09;;;14.40;100.00
50380;BME280;37474;59.468;18.040;2023-09-30T09:09:18;100491.69;;;14.53;100.00
50380;BME280;37474;59.468;18.040;2023-09-30T09:11:49;100450.81;;;14.04;100.00
50380;BME280;37474;59.468;18.040;2023-09-30T09:14:17;100515.81;;;14.81;99.81
50380;BME280;37474;59.468;18.040;2023-09-30T09:16:53;100503.75;;;14.91;99.88
50380;BME280;37474;59.468;18.040;2023-09-30T09:19:22;100500.63;;;15.10;99.49
50380;BME280;37474;59.468;18.040;2023-09-30T09:21:54;100474.94;;;14.92;98.36
50380;BME280;37474;59.468;18.040;2023-09-30T09:24:27;100506.34;;;15.15;95.75
50380;BME280;37474;59.468;18.040;2023-09-30T09:27:04;100510.34;;;15.08;95.04
50380;BME280;37474;59.468;18.040;2023-09-30T09:29:33;100516.75;;;15.03;95.71
50380;BME280;37474;59.468;18.040;2023-09-30T09:32:10;100513.72;;;15.21;93.91
50380;BME280;37474;59.468;18.040;2023-09-30T09:34:39;100518.06;;;15.09;95.80
50380;BME280;37474;59.468;18.040;2023-09-30T09:37:15;100515.16;;;15.25;95.18
50380;BME280;37474;59.468;18.040;2023-09-30T09:39:51;100512.00;;;15.32;94.68
50380;BME280;37474;59.468;18.040;2023-09-30T09:42:24;100507.59;;;15.33;91.35
50380;BME280;37474;59.468;18.040;2023-09-30T09:44:55;100517.03;;;15.12;88.72
50380;BME280;37474;59.468;18.040;2023-09-30T09:47:24;100517.94;;;15.35;88.61
50380;BME280;37474;59.468;18.040;2023-09-30T09:49:53;100519.94;;;15.42;90.96
50380;BME280;37474;59.468;18.040;2023-09-30T09:52:24;100472.59;;;15.47;90.67
50380;BME280;37474;59.468;18.040;2023-09-30T09:54:53;100513.22;;;15.62;89.88
50380;BME280;37474;59.468;18.040;2023-09-30T09:57:23;100515.94;;;15.38;90.16
50380;BME280;37474;59.468;18.040;2023-09-30T09:59:52;100461.06;;;15.38;92.52
50380;BME280;37474;59.468;18.040;2023-09-30T10:02:26;100518.47;;;15.62;87.35
50380;BME280;37474;59.468;18.040;2023-09-30T10:04:55;100505.38;;;15.51;87.70
50380;BME280;37474;59.468;18.040;2023-09-30T10:07:26;100495.63;;;15.53;91.63
50380;BME280;37474;59.468;18.040;2023-09-30T10:09:55;100500.50;;;15.46;88.54
50380;BME280;37474;59.468;18.040;2023-09-30T10:12:27;100505.19;;;15.76;86.65
50380;BME280;37474;59.468;18.040;2023-09-30T10:14:56;100514.34;;;15.71;84.77
50380;BME280;37474;59.468;18.040;2023-09-30T10:17:58;100518.38;;;15.64;86.68
50380;BME280;37474;59.468;18.040;2023-09-30T10:20:27;100522.19;;;15.82;86.49
50380;BME280;37474;59.468;18.040;2023-09-30T10:23:20;100523.88;;;15.83;86.78
50380;BME280;37474;59.468;18.040;2023-09-30T10:25:50;100528.84;;;16.20;88.14
50380;BME280;37474;59.468;18.040;2023-09-30T10:28:38;100536.22;;;16.15;85.34
50380;BME280;37474;59.468;18.040;2023-09-30T10:31:14;100541.91;;;15.86;86.20
50380;BME280;37474;59.468;18.040;2023-09-30T10:34:18;100525.53;;;15.84;88.15
50380;BME280;37474;59.468;18.040;2023-09-30T10:36:48;100529.09;;;15.72;89.48
50380;BME280;37474;59.468;18.040;2023-09-30T10:39:54;100532.28;;;15.29;88.58
50380;BME280;37474;59.468;18.040;2023-09-30T10:42:45;100537.41;;;15.07;90.67
50380;BME280;37474;59.468;18.040;2023-09-30T10:45:44;100541.91;;;14.81;92.44
50380;BME280;37474;59.468;18.040;2023-09-30T10:48:36;100539.41;;;14.79;93.44
50380;BME280;37474;59.468;18.040;2023-09-30T10:51:15;100547.81;;;14.95;95.49
50380;BME280;37474;59.468;18.040;2023-09-30T10:53:45;100545.41;;;14.92;94.82
50380;BME280;37474;59.468;18.040;2023-09-30T10:56:15;100543.47;;;14.83;96.40
50380;BME280;37474;59.468;18.040;2023-09-30T10:58:44;100547.06;;;14.93;98.11
50380;BME280;37474;59.468;18.040;2023-09-30T11:01:14;100542.03;;;14.79;98.61
50380;BME280;37474;59.468;18.040;2023-09-30T11:03:43;100548.91;;;15.04;96.11
50380;BME280;37474;59.468;18.040;2023-09-30T11:06:13;100505.91;;;14.97;94.76
50380;BME280;37474;59.468;18.040;2023-09-30T11:08:46;100469.56;;;14.83;96.39
50380;BME280;37474;59.468;18.040;2023-09-30T11:11:15;100545.38;;;15.40;95.17
50380;BME280;37474;59.468;18.040;2023-09-30T11:13:43;100549.03;;;15.38;92.21
50380;BME280;37474;59.468;18.040;2023-09-30T11:16:11;100542.47;;;15.32;92.92
50380;BME280;37474;59.468;18.040;2023-09-30T11:18:39;100561.28;;;15.13;94.64
50380;BME280;37474;59.468;18.040;2023-09-30T11:21:09;100549.47;;;15.31;93.96
50380;BME280;37474;59.468;18.040;2023-09-30T11:23:38;100539.53;;;15.37;92.42
50380;BME280;37474;59.468;18.040;2023-09-30T11:26:07;100546.56;;;15.47;86.75
50380;BME280;37474;59.468;18.040;2023-09-30T11:28:38;100561.72;;;15.31;88.79
50380;BME280;37474;59.468;18.040;2023-09-30T11:31:08;100547.16;;;15.40;87.12
50380;BME280;37474;59.468;18.040;2023-09-30T11:33:48;100513.28;;;15.27;87.75
50380;BME280;37474;59.468;18.040;2023-09-30T11:36:19;100551.94;;;15.57;86.67
50380;BME280;37474;59.468;18.040;2023-09-30T11:38:49;100569.63;;;15.53;88.13
50380;BME280;37474;59.468;18.040;2023-09-30T11:41:19;100540.75;;;15.44;87.19
50380;BME280;37474;59.468;18.040;2023-09-30T11:44:00;100556.22;;;15.23;88.50
50380;BME280;37474;59.468;18.040;2023-09-30T11:46:31;100551.84;;;15.23;89.35
50380;BME280;37474;59.468;18.040;2023-09-30T11:49:02;100542.03;;;15.38;88.62
50380;BME280;37474;59.468;18.040;2023-09-30T11:51:42;100543.38;;;15.20;87.81
50380;BME280;37474;59.468;18.040;2023-09-30T11:54:13;100548.56;;;15.32;87.37
50380;BME280;37474;59.468;18.040;2023-09-30T11:56:43;100537.75;;;15.37;88.94
50380;BME280;37474;59.468;18.040;2023-09-30T11:59:13;100536.72;;;15.51;88.60
50380;BME280;37474;59.468;18.040;2023-09-30T12:01:41;100542.25;;;15.35;90.51
50380;BME280;37474;59.468;18.040;2023-09-30T12:04:16;100540.53;;;15.12;90.98
50380;BME280;37474;59.468;18.040;2023-09-30T12:06:46;100529.53;;;14.95;90.84
50380;BME280;37474;59.468;18.040;2023-09-30T12:09:14;100541.13;;;15.50;91.92
50380;BME280;37474;59.468;18.040;2023-09-30T12:11:48;100504.94;;;15.22;91.21
50380;BME280;37474;59.468;18.040;2023-09-30T12:14:18;100549.06;;;15.49;88.75
50380;BME280;37474;59.468;18.040;2023-09-30T12:16:47;100545.34;;;15.29;89.21
50380;BME280;37474;59.468;18.040;2023-09-30T12:19:17;100549.72;;;15.04;90.82
50380;BME280;37474;59.468;18.040;2023-09-30T12:21:45;100533.06;;;15.18;90.47
50380;BME280;37474;59.468;18.040;2023-09-30T12:24:15;100554.06;;;15.17;91.48
50380;BME280;37474;59.468;18.040;2023-09-30T12:26:44;100526.63;;;14.63;93.55
50380;BME280;37474;59.468;18.040;2023-09-30T12:29:14;100569.44;;;15.09;92.33
50380;BME280;37474;59.468;18.040;2023-09-30T12:31:46;100544.31;;;14.84;94.25
50380;BME280;37474;59.468;18.040;2023-09-30T12:34:16;100545.72;;;14.64;94.98
50380;BME280;37474;59.468;18.040;2023-09-30T12:36:46;100558.38;;;14.57;96.70
50380;BME280;37474;59.468;18.040;2023-09-30T12:39:15;100567.09;;;15.05;94.24
50380;BME280;37474;59.468;18.040;2023-09-30T12:41:44;100525.44;;;15.15;92.16
50380;BME280;37474;59.468;18.040;2023-09-30T12:44:12;100548.50;;;15.56;90.19
50380;BME280;37474;59.468;18.040;2023-09-30T12:46:40;100557.50;;;15.99;88.86
50380;BME280;37474;59.468;18.040;2023-09-30T12:49:10;100555.94;;;15.85;85.47